createdAt,value
2022-09-07T00:11:32.006Z,93968.59
2022-09-07T00:16:36.380Z,93977.75
2022-09-07T00:21:40.849Z,93967.94
2022-09-07T00:26:45.319Z,93968.72
2022-09-07T00:31:52.889Z,93975.31
2022-09-07T00:36:58.159Z,93965.41
2022-09-07T00:42:05.813Z,93965.06
2022-09-07T00:47:30.171Z,93971.44
2022-09-07T00:52:36.032Z,93973.66
2022-09-07T00:57:44.716Z,93976.66
2022-09-07T01:02:53.412Z,93979.34
2022-09-07T01:08:02.051Z,93974.56
2022-09-07T01:13:15.523Z,93968.59
2022-09-07T01:19:11.694Z,93962.31
2022-09-07T01:24:43.741Z,93954.28
2022-09-07T01:30:07.150Z,93942.97
2022-09-07T01:35:23.113Z,93937.91
2022-09-07T01:40:30.448Z,93938.22
2022-09-07T01:45:37.118Z,93932.63
2022-09-07T01:50:48.004Z,93909.72
2022-09-07T01:56:00.357Z,93911.81
2022-09-07T02:01:25.665Z,93918.63
2022-09-07T02:06:39.803Z,93903.66
2022-09-07T02:11:48.238Z,93915.03
2022-09-07T02:17:05.476Z,93909.09
2022-09-07T02:22:25.946Z,93906.09
2022-09-07T02:27:40.910Z,93899.59
2022-09-07T02:32:44.427Z,93871.44
2022-09-07T02:38:06.690Z,93865.84
2022-09-07T02:43:15.787Z,93847.56
2022-09-07T02:48:48.070Z,93837.47
2022-09-07T02:54:03.720Z,93833.28
2022-09-07T02:59:29.627Z,93825.19
2022-09-07T03:05:06.654Z,93820.28
2022-09-07T03:10:10.590Z,93830.44
2022-09-07T03:15:15.431Z,93830.16
2022-09-07T03:20:19.657Z,93834.31
2022-09-07T03:25:23.514Z,93836.72
2022-09-07T03:30:27.921Z,93840.25
2022-09-07T03:35:31.493Z,93838.88
2022-09-07T03:40:35.018Z,93839.22
2022-09-07T03:45:38.906Z,93850.53
2022-09-07T03:50:42.082Z,93838.50
2022-09-07T03:55:55.418Z,93837.19
2022-09-07T04:00:58.823Z,93837.38
2022-09-07T04:06:02.730Z,93839.69
2022-09-07T04:11:07.585Z,93830.88
2022-09-07T04:16:22.604Z,93831.16
2022-09-07T04:21:28.838Z,93821.72
2022-09-07T04:26:33.873Z,93835.63
2022-09-07T04:31:37.466Z,93824.44
2022-09-07T04:36:40.512Z,93827.91
2022-09-07T04:41:43.617Z,93837.06
2022-09-07T04:46:46.873Z,93837.75
2022-09-07T04:51:49.849Z,93837.28
2022-09-07T04:56:53.934Z,93831.38
2022-09-07T05:01:57.119Z,93834.44
2022-09-07T05:07:00.463Z,93829.88
2022-09-07T05:12:04.259Z,93837.34
2022-09-07T05:17:08.025Z,93839.44
2022-09-07T05:22:11.207Z,93848.41
2022-09-07T05:27:14.225Z,93844.31
2022-09-07T05:32:17.500Z,93859.34
2022-09-07T05:37:20.856Z,93860.53
2022-09-07T05:42:24.236Z,93873.75
2022-09-07T05:47:29.895Z,93865.28
2022-09-07T05:52:33.196Z,93863.22
2022-09-07T05:57:36.270Z,93864.78
2022-09-07T06:02:41.663Z,93868.13
2022-09-07T06:07:51.365Z,93871.41
2022-09-07T06:12:58.704Z,93874.69
2022-09-07T06:18:03.718Z,93868.47
2022-09-07T06:23:08.050Z,93857.25
2022-09-07T06:28:12.924Z,93867.03
2022-09-07T06:33:21.918Z,93870.50
2022-09-07T06:38:29.953Z,93887.19
2022-09-07T06:43:36.992Z,93884.47
2022-09-07T06:48:44.254Z,93894.09
2022-09-07T06:53:50.435Z,93894.06
2022-09-07T06:58:55.280Z,93884.53
2022-09-07T07:03:58.073Z,93885.25
2022-09-07T07:09:00.922Z,93880.19
2022-09-07T07:14:04.145Z,93891.16
2022-09-07T07:19:06.860Z,93886.44
2022-09-07T07:24:09.622Z,93886.84
2022-09-07T07:29:14.723Z,93893.72
2022-09-07T07:34:20.068Z,93910.25
2022-09-07T07:44:45.616Z,93912.91
2022-09-07T07:49:49.469Z,93908.66
2022-09-07T07:54:52.991Z,93913.66
2022-09-07T07:59:55.883Z,93911.59
2022-09-07T08:04:58.951Z,93911.22
2022-09-07T08:10:01.757Z,93925.16
2022-09-07T08:15:04.647Z,93921.38
2022-09-07T08:20:07.601Z,93925.53
2022-09-07T08:25:10.443Z,93935.31
2022-09-07T08:30:15.666Z,93925.00
2022-09-07T08:35:18.405Z,93926.97
2022-09-07T08:40:22.205Z,93934.25
2022-09-07T08:45:32.480Z,93939.53
2022-09-07T08:50:40.027Z,93945.38
2022-09-07T08:55:48.516Z,93953.78
2022-09-07T09:01:30.570Z,93965.84
2022-09-07T09:06:15.171Z,93967.53
2022-09-07T09:11:38.152Z,93964.13
2022-09-07T09:16:44.883Z,93961.84
2022-09-07T09:21:49.398Z,93969.66
2022-09-07T09:26:55.784Z,93959.31
2022-09-07T09:32:01.419Z,93962.66
2022-09-07T09:37:07.456Z,93962.50
2022-09-07T09:42:17.281Z,93941.50
2022-09-07T09:47:31.424Z,93953.28
2022-09-07T09:52:49.341Z,93951.19
2022-09-07T10:08:57.074Z,93944.19
2022-09-07T10:14:00.313Z,93945.19
2022-09-07T10:19:03.414Z,93947.97
2022-09-07T10:24:06.042Z,93931.63
2022-09-07T10:29:12.566Z,93942.84
2022-09-07T10:34:27.850Z,93941.28
2022-09-07T10:39:37.250Z,93934.81
2022-09-07T10:44:39.987Z,93929.84
2022-09-07T10:55:42.060Z,93933.06
2022-09-07T11:00:58.795Z,93928.09
2022-09-07T11:06:02.086Z,93933.91
2022-09-07T11:11:14.935Z,93927.78
2022-09-07T11:21:59.573Z,93920.78
2022-09-07T11:27:11.147Z,93921.66
2022-09-07T11:32:28.517Z,93917.91
2022-09-07T11:37:42.165Z,93919.56
2022-09-07T11:43:00.826Z,93916.88
2022-09-07T11:48:04.469Z,93912.41
2022-09-07T11:53:10.137Z,93909.56
2022-09-07T11:58:23.936Z,93899.47
2022-09-07T12:03:28.027Z,93895.75
2022-09-07T12:08:31.101Z,93897.44
2022-09-07T12:13:41.234Z,93896.63
2022-09-07T12:19:12.819Z,93886.91
2022-09-07T12:24:37.389Z,93886.38
2022-09-07T12:29:45.290Z,93891.75
2022-09-07T12:34:52.793Z,93893.75
2022-09-07T12:40:16.855Z,93880.94
2022-09-07T12:45:30.583Z,93873.00
2022-09-07T12:50:59.373Z,93876.41
2022-09-07T12:56:18.667Z,93875.22
2022-09-07T13:01:24.774Z,93867.59
2022-09-07T13:11:57.846Z,93873.56
2022-09-07T13:17:19.206Z,93870.81
2022-09-07T13:22:30.901Z,93860.84
2022-09-07T13:27:53.972Z,93857.50
2022-09-07T13:33:15.081Z,93857.84
2022-09-07T13:38:17.698Z,93861.69
2022-09-07T13:43:21.737Z,93855.81
2022-09-07T13:48:27.422Z,93870.13
2022-09-07T13:53:30.264Z,93875.34
2022-09-07T13:58:53.528Z,93872.41
2022-09-07T14:04:00.251Z,93883.06
2022-09-07T14:09:02.894Z,93880.34
2022-09-07T14:14:09.447Z,93870.19
2022-09-07T14:19:13.925Z,93878.78
2022-09-07T14:24:45.906Z,93866.22
2022-09-07T14:29:48.887Z,93860.97
2022-09-07T14:34:52.975Z,93860.94
2022-09-07T14:39:56.616Z,93865.03
2022-09-07T14:45:18.767Z,93837.72
2022-09-07T14:50:27.064Z,93852.56
2022-09-07T14:55:32.265Z,93862.44
2022-09-07T15:00:35.144Z,93863.59
2022-09-07T15:05:47.076Z,93856.88
2022-09-07T15:16:24.467Z,93847.22
2022-09-07T15:21:28.698Z,93846.75
2022-09-07T15:32:04.866Z,93836.34
2022-09-07T15:48:00.426Z,93851.94
2022-09-07T15:53:05.906Z,93852.34
2022-09-07T15:58:12.953Z,93837.59
2022-09-07T16:03:18.001Z,93835.19
2022-09-07T16:08:26.348Z,93834.44
2022-09-07T16:13:31.797Z,93836.97
2022-09-07T16:18:37.170Z,93828.34
2022-09-07T16:23:42.343Z,93831.22
2022-09-07T16:28:48.600Z,93833.06
2022-09-07T16:33:52.822Z,93828.22
2022-09-07T16:38:57.354Z,93840.63
2022-09-07T16:44:00.412Z,93846.13
2022-09-07T16:49:04.305Z,93840.47
2022-09-07T16:54:08.230Z,93832.41
2022-09-07T16:59:16.314Z,93829.72
2022-09-07T17:04:20.418Z,93823.63
2022-09-07T17:09:27.550Z,93823.69
2022-09-07T17:14:31.843Z,93816.72
2022-09-07T17:19:35.256Z,93811.63
2022-09-07T17:24:38.880Z,93812.75
2022-09-07T17:29:42.868Z,93809.47
2022-09-07T17:34:48.406Z,93813.66
2022-09-07T17:39:54.039Z,93818.06
2022-09-07T17:44:59.264Z,93822.22
2022-09-07T17:50:03.932Z,93825.81
2022-09-07T17:55:07.385Z,93810.88
2022-09-07T18:00:12.842Z,93825.66
2022-09-07T18:05:16.149Z,93834.03
2022-09-07T18:10:19.064Z,93838.25
2022-09-07T18:15:22.580Z,93845.53
2022-09-07T18:20:25.916Z,93846.91
2022-09-07T18:25:29.352Z,93857.13
2022-09-07T18:30:35.305Z,93865.31
2022-09-07T18:35:38.230Z,93862.97
2022-09-07T18:40:41.068Z,93873.06
2022-09-07T18:45:43.804Z,93881.06
2022-09-07T18:50:52.770Z,93885.09
2022-09-07T18:56:00.760Z,93881.66
2022-09-07T19:01:08.148Z,93891.00
2022-09-07T19:06:13.326Z,93901.84
2022-09-07T19:11:17.338Z,93888.91
2022-09-07T19:16:20.414Z,93889.63
2022-09-07T19:21:25.376Z,93897.72
2022-09-07T19:26:30.157Z,93901.00
2022-09-07T19:31:33.538Z,93902.81
2022-09-07T19:36:38.141Z,93892.28
2022-09-07T19:41:46.915Z,93895.84
2022-09-07T19:46:50.769Z,93906.63
2022-09-07T19:51:53.803Z,93900.31
2022-09-07T19:56:58.990Z,93898.09
2022-09-07T20:02:01.777Z,93907.38
2022-09-07T20:07:04.532Z,93904.00
2022-09-07T20:12:07.987Z,93917.56
2022-09-07T20:17:12.448Z,93908.81
2022-09-07T20:22:15.044Z,93915.31
2022-09-07T20:27:17.888Z,93912.72
2022-09-07T20:32:22.259Z,93897.69
2022-09-07T20:37:27.591Z,93902.28
2022-09-07T20:42:30.466Z,93908.63
2022-09-07T20:47:33.333Z,93913.47
2022-09-07T20:52:36.332Z,93912.44
2022-09-07T20:57:39.113Z,93898.63
2022-09-07T21:02:42.051Z,93917.25
2022-09-07T21:07:44.748Z,93901.59
2022-09-07T21:12:47.643Z,93892.25
2022-09-07T21:17:50.417Z,93888.22
2022-09-07T21:22:53.272Z,93889.25
2022-09-07T21:27:56.084Z,93891.94
2022-09-07T21:33:02.443Z,93894.59
2022-09-07T21:38:05.962Z,93885.03
2022-09-07T21:43:08.729Z,93888.69
2022-09-07T21:48:11.712Z,93891.03
2022-09-07T21:53:14.419Z,93888.81
2022-09-07T21:58:17.427Z,93881.25
2022-09-07T22:03:21.195Z,93863.34
2022-09-07T22:08:23.956Z,93862.97
2022-09-07T22:13:27.332Z,93857.81
2022-09-07T22:18:30.935Z,93861.78
2022-09-07T22:23:34.863Z,93856.94
2022-09-07T22:28:38.388Z,93856.19
2022-09-07T22:33:42.005Z,93849.75
2022-09-07T22:38:46.201Z,93849.31
2022-09-07T22:43:51.216Z,93853.69
2022-09-07T22:48:58.558Z,93847.56
2022-09-07T22:54:01.962Z,93846.22
2022-09-07T22:59:08.140Z,93854.31
2022-09-07T23:04:13.049Z,93847.75
2022-09-07T23:09:16.947Z,93844.84
2022-09-07T23:14:22.107Z,93837.31
2022-09-07T23:19:24.991Z,93836.88
2022-09-07T23:24:27.692Z,93830.66
2022-09-07T23:29:31.456Z,93827.19
2022-09-07T23:34:35.800Z,93827.44
2022-09-07T23:39:40.614Z,93828.53
2022-09-07T23:44:45.493Z,93820.91
2022-09-07T23:49:48.765Z,93808.06
2022-09-07T23:54:51.886Z,93814.06
2022-09-07T23:59:54.895Z,93815.34
